Apple Valley, Idaho
Current Conditions -  °F | °C
As of 7:53 PM on Monday 20 Oct 2014 (Local Time) from KONO Reporting Station
Clear Clear  
Wind Chill: 61°   Ceiling: Unl
Heat Index: 61°   Visibility: 9mi
Dew Point: 37°   Wind: 3mph
Humidity: 41%   Direction: 130°SE
Pressure: 29.69"   Gusts: NA
Location:  43.8067°N, 116.922°W
Report Text: KONO 210153Z AUTO 13003KT 9SM CLR 16/03 A2969 RMK AO2 SLP056 T01610028
Loading
Personal Weather Stations






























Interactive Weather Map
Tropical Storm Tracking
New forecast layout! Learn more

10-Day Weather Forecast

Advertisements
Track Severe Weather on mobile